createdAt,value
2023-04-16T00:01:36.014Z,9.40
2023-04-16T00:04:03.260Z,9.30
2023-04-16T00:06:30.371Z,9.40
2023-04-16T00:08:57.123Z,9.30
2023-04-16T00:11:23.992Z,9.40
2023-04-16T00:13:50.773Z,9.30
2023-04-16T00:16:17.690Z,9.30
2023-04-16T00:18:44.644Z,9.30
2023-04-16T00:21:11.431Z,9.40
2023-04-16T00:23:38.328Z,9.30
2023-04-16T00:26:05.245Z,9.30
2023-04-16T00:28:32.061Z,9.30
2023-04-16T00:30:59.461Z,9.30
2023-04-16T00:33:26.358Z,9.30
2023-04-16T00:35:53.424Z,9.30
2023-04-16T00:38:20.950Z,9.20
2023-04-16T00:40:47.785Z,9.20
2023-04-16T00:43:25.551Z,9.20
2023-04-16T00:45:53.185Z,9.20
2023-04-16T00:48:23.368Z,9.30
2023-04-16T00:50:50.727Z,9.20
2023-04-16T00:53:17.780Z,9.20
2023-04-16T00:55:44.942Z,9.20
2023-04-16T00:58:11.833Z,9.20
2023-04-16T01:00:38.610Z,9.20
2023-04-16T01:03:05.566Z,9.20
2023-04-16T01:05:32.611Z,9.20
2023-04-16T01:08:02.881Z,9.20
2023-04-16T01:10:29.675Z,9.20
2023-04-16T01:12:56.456Z,9.20
2023-04-16T01:15:23.303Z,9.20
2023-04-16T01:17:50.105Z,9.20
2023-04-16T01:20:17.010Z,9.20
2023-04-16T01:22:43.778Z,9.20
2023-04-16T01:25:13.714Z,9.20
2023-04-16T01:27:40.480Z,9.20
2023-04-16T01:30:07.656Z,9.20
2023-04-16T01:32:45.348Z,9.20
2023-04-16T01:35:12.106Z,9.30
2023-04-16T01:37:38.966Z,9.30
2023-04-16T01:40:06.047Z,9.20
2023-04-16T01:42:32.874Z,9.20
2023-04-16T01:44:59.893Z,9.30
2023-04-16T01:47:26.779Z,9.20
2023-04-16T01:49:53.773Z,9.20
2023-04-16T01:52:21.174Z,9.20
2023-04-16T01:54:48.055Z,9.20
2023-04-16T01:57:14.803Z,9.20
2023-04-16T01:59:41.563Z,9.10
2023-04-16T02:02:12.980Z,9.10
2023-04-16T02:04:40.771Z,9.10
2023-04-16T02:07:08.132Z,9.20
2023-04-16T02:09:35.517Z,9.20
2023-04-16T02:12:05.419Z,9.30
2023-04-16T02:14:32.498Z,9.20
2023-04-16T02:16:59.874Z,9.20
2023-04-16T02:19:41.224Z,9.20
2023-04-16T02:22:09.688Z,9.20
2023-04-16T02:24:36.453Z,9.20
2023-04-16T02:27:07.336Z,9.30
2023-04-16T02:29:34.337Z,9.20
2023-04-16T02:32:09.240Z,9.20
2023-04-16T02:34:36.442Z,9.20
2023-04-16T02:37:03.253Z,9.20
2023-04-16T02:39:30.049Z,9.20
2023-04-16T02:42:03.096Z,9.20
2023-04-16T02:44:29.908Z,9.20
2023-04-16T02:46:56.808Z,9.20
2023-04-16T02:49:23.704Z,9.20
2023-04-16T02:51:50.652Z,9.20
2023-04-16T02:54:17.516Z,9.20
2023-04-16T02:56:44.320Z,9.20
2023-04-16T02:59:11.438Z,9.20
2023-04-16T03:01:38.595Z,9.20
2023-04-16T03:04:05.786Z,9.20
2023-04-16T03:06:32.707Z,9.20
2023-04-16T03:08:59.505Z,9.20
2023-04-16T03:11:26.236Z,9.20
2023-04-16T03:13:53.809Z,9.20
2023-04-16T03:16:20.767Z,9.20
2023-04-16T03:18:47.612Z,9.20
2023-04-16T03:21:14.379Z,9.20
2023-04-16T03:23:41.611Z,9.20
2023-04-16T03:26:08.455Z,9.10
2023-04-16T03:28:35.425Z,9.10
2023-04-16T03:31:02.291Z,9.10
2023-04-16T03:33:29.668Z,9.10
2023-04-16T03:35:57.205Z,9.10
2023-04-16T03:38:26.652Z,9.20
2023-04-16T03:40:56.227Z,9.20
2023-04-16T03:43:23.128Z,9.20
2023-04-16T03:45:50.153Z,9.20
2023-04-16T03:48:19.151Z,9.20
2023-04-16T03:50:47.470Z,9.20
2023-04-16T03:53:16.130Z,9.20
2023-04-16T03:55:43.124Z,9.10
2023-04-16T03:58:10.700Z,9.10
2023-04-16T04:00:37.441Z,9.10
2023-04-16T04:03:11.421Z,9.10
2023-04-16T04:05:42.278Z,9.10
2023-04-16T04:08:11.262Z,9.10
2023-04-16T04:10:38.273Z,9.20
2023-04-16T04:13:06.606Z,9.20
2023-04-16T04:15:34.529Z,9.20
2023-04-16T04:18:01.527Z,9.20
2023-04-16T04:20:28.490Z,9.20
2023-04-16T04:22:55.286Z,9.20
2023-04-16T04:25:25.088Z,9.20
2023-04-16T04:27:51.924Z,9.20
2023-04-16T04:30:18.836Z,9.20
2023-04-16T04:32:46.180Z,9.20
2023-04-16T04:35:13.553Z,9.20
2023-04-16T04:37:41.537Z,9.20
2023-04-16T04:40:15.762Z,9.20
2023-04-16T04:42:42.770Z,9.20
2023-04-16T04:45:10.318Z,9.20
2023-04-16T04:47:37.350Z,9.20
2023-04-16T04:50:04.220Z,9.20
2023-04-16T04:52:32.439Z,9.20
2023-04-16T04:55:00.170Z,9.20
2023-04-16T04:57:27.013Z,9.20
2023-04-16T04:59:54.930Z,9.20
2023-04-16T05:02:22.333Z,9.20
2023-04-16T05:04:49.170Z,9.20
2023-04-16T05:07:16.266Z,9.20
2023-04-16T05:09:43.112Z,9.20
2023-04-16T05:12:09.916Z,9.20
2023-04-16T05:14:36.650Z,9.20
2023-04-16T05:17:03.750Z,9.20
2023-04-16T05:19:30.835Z,9.20
2023-04-16T05:21:57.590Z,9.10
2023-04-16T05:24:24.413Z,9.20
2023-04-16T05:26:51.379Z,9.20
2023-04-16T05:29:18.204Z,9.20
2023-04-16T05:31:45.019Z,9.20
2023-04-16T05:34:11.838Z,9.20
2023-04-16T05:36:38.609Z,9.20
2023-04-16T05:39:07.681Z,9.20
2023-04-16T05:41:34.723Z,9.20
2023-04-16T05:44:02.016Z,9.20
2023-04-16T05:46:28.797Z,9.20
2023-04-16T05:48:55.598Z,9.20
2023-04-16T05:51:23.145Z,9.30
2023-04-16T05:53:50.012Z,9.30
2023-04-16T05:56:16.791Z,9.30
2023-04-16T05:58:43.624Z,9.30
2023-04-16T06:01:11.087Z,9.30
2023-04-16T06:03:38.063Z,9.30
2023-04-16T06:06:05.052Z,9.30
2023-04-16T06:08:31.964Z,9.30
2023-04-16T06:10:58.738Z,9.30
2023-04-16T06:13:25.552Z,9.30
2023-04-16T06:15:52.341Z,9.30
2023-04-16T06:18:19.244Z,9.30
2023-04-16T06:20:46.049Z,9.40
2023-04-16T06:23:12.794Z,9.40
2023-04-16T06:25:39.736Z,9.40
2023-04-16T06:28:06.535Z,9.50
2023-04-16T06:30:33.360Z,9.50
2023-04-16T06:33:00.317Z,9.50
2023-04-16T06:35:27.096Z,9.50
2023-04-16T06:37:53.849Z,9.50
2023-04-16T06:40:20.612Z,9.50
2023-04-16T06:42:47.354Z,9.50
2023-04-16T06:45:14.171Z,9.50
2023-04-16T06:47:41.161Z,9.50
2023-04-16T06:50:08.221Z,9.60
2023-04-16T06:52:35.202Z,9.50
2023-04-16T06:55:02.182Z,9.50
2023-04-16T06:57:29.099Z,9.50
2023-04-16T06:59:55.880Z,9.50
2023-04-16T07:02:22.851Z,9.50
2023-04-16T07:04:49.770Z,9.60
2023-04-16T07:07:16.560Z,9.70
2023-04-16T07:09:43.390Z,9.70
2023-04-16T07:12:11.426Z,9.70
2023-04-16T07:14:38.207Z,9.70
2023-04-16T07:17:05.003Z,9.70
2023-04-16T07:19:32.828Z,9.70
2023-04-16T07:21:59.926Z,9.70
2023-04-16T07:24:26.882Z,9.70
2023-04-16T07:26:55.768Z,9.80
2023-04-16T07:29:22.492Z,9.80
2023-04-16T07:31:49.391Z,9.80
2023-04-16T07:34:16.299Z,9.80
2023-04-16T07:36:43.107Z,9.90
2023-04-16T07:39:11.409Z,9.90
2023-04-16T07:41:39.914Z,9.90
2023-04-16T07:44:06.939Z,10.00
2023-04-16T07:46:45.513Z,10.00
2023-04-16T07:49:14.062Z,10.00
2023-04-16T07:51:41.057Z,10.10
2023-04-16T07:54:07.927Z,10.10
2023-04-16T07:56:34.782Z,10.10
2023-04-16T07:59:11.097Z,10.10
2023-04-16T08:01:41.653Z,10.10
2023-04-16T08:04:08.678Z,10.20
2023-04-16T08:06:35.612Z,10.20
2023-04-16T08:09:02.411Z,10.20
2023-04-16T08:11:29.402Z,10.20
2023-04-16T08:13:56.308Z,10.20
2023-04-16T08:16:23.070Z,10.30
2023-04-16T08:18:49.834Z,10.30
2023-04-16T08:21:16.623Z,10.30
2023-04-16T08:23:43.382Z,10.30
2023-04-16T08:26:10.258Z,10.40
2023-04-16T08:28:37.001Z,10.40
2023-04-16T08:31:03.856Z,10.50
2023-04-16T08:33:30.839Z,10.50
2023-04-16T08:35:57.626Z,10.50
2023-04-16T08:38:24.410Z,10.50
2023-04-16T08:40:51.333Z,10.50
2023-04-16T08:43:18.951Z,10.50
2023-04-16T08:45:47.306Z,10.60
2023-04-16T08:48:15.137Z,10.50
2023-04-16T08:50:47.140Z,10.60
2023-04-16T08:53:15.962Z,10.60
2023-04-16T08:55:51.831Z,10.50
2023-04-16T08:58:19.651Z,10.50
2023-04-16T09:00:46.669Z,10.50
2023-04-16T09:03:13.916Z,10.50
2023-04-16T09:05:41.856Z,10.50
2023-04-16T09:08:08.662Z,10.50
2023-04-16T09:10:35.487Z,10.50
2023-04-16T09:13:02.261Z,10.50
2023-04-16T09:15:29.576Z,10.50
2023-04-16T09:17:59.446Z,10.50
2023-04-16T09:20:26.329Z,10.50
2023-04-16T09:22:53.164Z,10.60
2023-04-16T09:25:20.962Z,10.70
2023-04-16T09:27:49.424Z,10.70
2023-04-16T09:30:21.929Z,10.70
2023-04-16T09:32:49.406Z,10.80
2023-04-16T09:35:17.182Z,10.80
2023-04-16T09:37:43.992Z,10.90
2023-04-16T09:40:11.222Z,11.00
2023-04-16T09:42:38.267Z,11.00
2023-04-16T09:45:06.155Z,11.10
2023-04-16T09:47:41.540Z,11.10
2023-04-16T09:50:11.277Z,11.10
2023-04-16T09:52:39.411Z,11.10
2023-04-16T09:55:06.514Z,11.10
2023-04-16T09:57:33.347Z,11.20
2023-04-16T10:00:08.891Z,11.20
2023-04-16T10:02:39.015Z,11.20
2023-04-16T10:05:06.408Z,11.30
2023-04-16T10:07:33.988Z,11.30
2023-04-16T10:10:01.074Z,11.40
2023-04-16T10:12:28.817Z,11.40
2023-04-16T10:14:55.651Z,11.40
2023-04-16T10:17:24.002Z,11.40
2023-04-16T10:19:51.224Z,11.40
2023-04-16T10:22:17.986Z,11.50
2023-04-16T10:24:45.331Z,11.40
2023-04-16T10:27:12.344Z,11.50
2023-04-16T10:29:39.126Z,11.50
2023-04-16T10:32:06.410Z,11.50
2023-04-16T10:34:33.392Z,11.50
2023-04-16T10:37:00.252Z,11.40
2023-04-16T10:39:30.345Z,11.30
2023-04-16T10:42:07.740Z,11.30
2023-04-16T10:44:34.625Z,11.40
2023-04-16T10:47:01.385Z,11.40
2023-04-16T10:49:28.236Z,11.40
2023-04-16T10:51:58.891Z,11.40
2023-04-16T10:54:31.923Z,11.40
2023-04-16T10:57:00.790Z,11.40
2023-04-16T10:59:36.067Z,11.40
2023-04-16T11:02:18.932Z,11.40
2023-04-16T11:04:47.350Z,11.40
2023-04-16T11:07:23.257Z,11.40
2023-04-16T11:09:50.571Z,11.40
2023-04-16T11:12:21.504Z,11.30
2023-04-16T11:14:50.088Z,11.20
2023-04-16T11:17:17.562Z,11.30
2023-04-16T11:19:44.610Z,11.40
2023-04-16T11:22:17.191Z,11.40
2023-04-16T11:24:44.819Z,11.40
2023-04-16T11:27:15.219Z,11.40
2023-04-16T11:29:42.273Z,11.40
2023-04-16T11:32:09.357Z,11.40
2023-04-16T11:34:43.765Z,11.40
2023-04-16T11:37:10.827Z,11.40
2023-04-16T11:39:47.736Z,11.30
2023-04-16T11:42:18.796Z,11.30
2023-04-16T11:44:45.818Z,11.30
2023-04-16T11:47:13.748Z,11.40
2023-04-16T11:49:40.681Z,11.40
2023-04-16T11:52:07.454Z,11.30
2023-04-16T11:54:36.514Z,11.30
2023-04-16T11:57:06.480Z,11.30
2023-04-16T11:59:34.434Z,11.30
2023-04-16T12:02:01.296Z,11.40
2023-04-16T12:04:29.455Z,11.40
2023-04-16T12:07:08.830Z,11.40
2023-04-16T12:09:38.697Z,11.50
2023-04-16T12:12:25.019Z,11.50
2023-04-16T12:14:52.136Z,11.50
2023-04-16T12:17:19.718Z,11.50
2023-04-16T12:20:09.255Z,11.50
2023-04-16T12:22:37.313Z,11.50
2023-04-16T12:25:06.073Z,11.50
2023-04-16T12:27:42.043Z,11.50
2023-04-16T12:30:09.395Z,11.60
2023-04-16T12:32:36.509Z,11.60
2023-04-16T12:35:03.400Z,11.60
2023-04-16T12:37:30.264Z,11.50
2023-04-16T12:39:57.141Z,11.50
2023-04-16T12:42:23.989Z,11.40
2023-04-16T12:44:51.468Z,11.50
2023-04-16T12:47:18.240Z,11.50
2023-04-16T12:49:45.705Z,11.50
2023-04-16T12:52:12.579Z,11.60
2023-04-16T12:54:39.390Z,11.60
2023-04-16T12:57:09.646Z,11.60
2023-04-16T12:59:36.391Z,11.60
2023-04-16T13:02:03.765Z,11.60
2023-04-16T13:04:31.905Z,11.60
2023-04-16T13:06:59.221Z,11.60
2023-04-16T13:09:26.022Z,11.60
2023-04-16T13:11:52.984Z,11.60
2023-04-16T13:14:20.678Z,11.60
2023-04-16T13:16:48.498Z,11.60
2023-04-16T13:19:15.950Z,11.60
2023-04-16T13:21:42.738Z,11.60
2023-04-16T13:24:09.681Z,11.60
2023-04-16T13:26:36.547Z,11.60
2023-04-16T13:29:03.604Z,11.60
2023-04-16T13:31:30.721Z,11.70
2023-04-16T13:33:57.602Z,11.70
2023-04-16T13:36:25.649Z,11.80
2023-04-16T13:38:54.558Z,11.80
2023-04-16T13:41:21.499Z,11.90
2023-04-16T13:43:48.334Z,11.90
2023-04-16T13:46:15.464Z,11.90
2023-04-16T13:48:42.306Z,11.90
2023-04-16T13:51:09.043Z,12.00
2023-04-16T13:53:36.077Z,12.10
2023-04-16T13:56:03.771Z,12.10
2023-04-16T13:58:30.794Z,12.10
2023-04-16T14:00:57.739Z,12.00
2023-04-16T14:03:25.470Z,12.00
2023-04-16T14:05:52.423Z,12.10
2023-04-16T14:08:21.191Z,12.10
2023-04-16T14:10:48.237Z,12.10
2023-04-16T14:13:15.844Z,12.10
2023-04-16T14:15:42.686Z,12.10
2023-04-16T14:18:09.459Z,12.10
2023-04-16T14:20:36.372Z,12.10
2023-04-16T14:23:12.754Z,12.10
2023-04-16T14:26:04.879Z,12.10
2023-04-16T14:28:32.013Z,12.20
2023-04-16T14:30:58.911Z,12.20
2023-04-16T14:33:25.729Z,12.20
2023-04-16T14:35:52.575Z,12.10
2023-04-16T14:38:19.357Z,12.10
2023-04-16T14:40:46.173Z,12.10
2023-04-16T14:43:12.960Z,12.10
2023-04-16T14:45:39.721Z,12.10
2023-04-16T14:48:06.792Z,12.10
2023-04-16T14:50:37.841Z,12.10
2023-04-16T14:53:05.163Z,12.10
2023-04-16T14:55:32.276Z,12.10
2023-04-16T14:57:59.761Z,12.10
2023-04-16T15:00:27.465Z,12.00
2023-04-16T15:02:54.819Z,12.10
2023-04-16T15:05:22.218Z,12.10
2023-04-16T15:07:49.010Z,12.10
2023-04-16T15:10:15.795Z,12.00
2023-04-16T15:12:42.994Z,12.10
2023-04-16T15:15:10.590Z,12.10
2023-04-16T15:17:37.509Z,12.00
2023-04-16T15:20:10.528Z,12.00
2023-04-16T15:22:38.050Z,12.00
2023-04-16T15:25:05.758Z,12.00
2023-04-16T15:27:32.588Z,12.00
2023-04-16T15:29:59.712Z,12.00
2023-04-16T15:32:26.672Z,12.00
2023-04-16T15:34:53.616Z,12.10
2023-04-16T15:37:20.339Z,12.10
2023-04-16T15:39:47.148Z,12.10
2023-04-16T15:42:14.235Z,12.10
2023-04-16T15:44:41.173Z,12.10
2023-04-16T15:47:08.721Z,12.10
2023-04-16T15:49:36.316Z,12.10
2023-04-16T15:52:03.136Z,12.10
2023-04-16T15:54:30.697Z,12.00
2023-04-16T15:56:58.727Z,12.00
2023-04-16T15:59:26.177Z,12.00
2023-04-16T16:01:53.152Z,12.10
2023-04-16T16:04:22.768Z,12.10
2023-04-16T16:06:50.317Z,12.10
2023-04-16T16:09:17.175Z,12.10
2023-04-16T16:11:44.014Z,12.00
2023-04-16T16:14:11.032Z,12.00
2023-04-16T16:16:38.092Z,12.00
2023-04-16T16:19:05.436Z,12.00
2023-04-16T16:21:33.061Z,12.00
2023-04-16T16:23:59.880Z,12.00
2023-04-16T16:26:27.171Z,12.00
2023-04-16T16:28:53.991Z,12.00
2023-04-16T16:31:21.224Z,12.10
2023-04-16T16:33:48.032Z,12.10
2023-04-16T16:36:14.902Z,12.00
2023-04-16T16:38:42.553Z,12.00
2023-04-16T16:41:09.514Z,11.90
2023-04-16T16:43:39.485Z,12.00
2023-04-16T16:46:07.409Z,11.90
2023-04-16T16:48:34.356Z,11.90
2023-04-16T16:51:01.122Z,12.00
2023-04-16T16:53:28.143Z,11.90
2023-04-16T16:55:54.921Z,11.90
2023-04-16T16:58:21.957Z,12.00
2023-04-16T17:00:48.819Z,11.90
2023-04-16T17:03:15.840Z,11.90
2023-04-16T17:05:42.708Z,11.80
2023-04-16T17:08:12.240Z,11.80
2023-04-16T17:10:39.113Z,11.90
2023-04-16T17:13:05.999Z,11.90
2023-04-16T17:15:33.028Z,11.90
2023-04-16T17:17:59.969Z,11.90
2023-04-16T17:20:27.056Z,11.90
2023-04-16T17:22:53.920Z,11.80
2023-04-16T17:25:20.713Z,11.80
2023-04-16T17:27:47.725Z,11.80
2023-04-16T17:30:14.711Z,11.80
2023-04-16T17:32:41.644Z,11.80
2023-04-16T17:35:09.872Z,11.80
2023-04-16T17:37:36.909Z,11.80
2023-04-16T17:40:07.411Z,11.70
2023-04-16T17:42:34.918Z,11.70
2023-04-16T17:45:01.914Z,11.70
2023-04-16T17:47:28.999Z,11.70
2023-04-16T17:49:58.768Z,11.70
2023-04-16T17:52:26.271Z,11.60
2023-04-16T17:55:01.956Z,11.70
2023-04-16T17:57:33.080Z,11.70
2023-04-16T18:00:29.456Z,11.70
2023-04-16T18:02:58.619Z,11.70
2023-04-16T18:05:26.605Z,11.70
2023-04-16T18:08:41.498Z,11.70
2023-04-16T18:12:19.733Z,11.60
2023-04-16T18:15:17.574Z,11.60
2023-04-16T18:18:37.484Z,11.70
2023-04-16T18:21:26.861Z,11.60
2023-04-16T18:23:55.154Z,11.60
2023-04-16T18:26:23.146Z,11.60
2023-04-16T18:28:56.503Z,11.60
2023-04-16T18:31:27.965Z,11.50
2023-04-16T18:33:57.794Z,11.60
2023-04-16T18:36:27.077Z,11.40
2023-04-16T18:39:01.008Z,11.40
2023-04-16T18:41:31.683Z,11.40
2023-04-16T18:43:59.157Z,11.40
2023-04-16T18:46:27.934Z,11.40
2023-04-16T18:48:55.297Z,11.40
2023-04-16T18:51:31.586Z,11.40
2023-04-16T18:53:59.140Z,11.40
2023-04-16T18:56:26.686Z,11.30
2023-04-16T18:58:54.744Z,11.30
2023-04-16T19:01:23.313Z,11.30
2023-04-16T19:03:51.241Z,11.30
2023-04-16T19:06:27.919Z,11.20
2023-04-16T19:08:56.319Z,11.20
2023-04-16T19:11:24.290Z,11.20
2023-04-16T19:13:51.620Z,11.20
2023-04-16T19:16:23.664Z,11.20
2023-04-16T19:18:51.245Z,11.20
2023-04-16T19:21:20.698Z,11.20
2023-04-16T19:23:48.693Z,11.10
2023-04-16T19:26:15.672Z,11.10
2023-04-16T19:28:54.688Z,11.00
2023-04-16T19:31:21.499Z,11.00
2023-04-16T19:33:48.446Z,11.00
2023-04-16T19:36:17.682Z,11.00
2023-04-16T19:38:44.497Z,10.90
2023-04-16T19:41:11.447Z,11.00
2023-04-16T19:43:38.380Z,10.90
2023-04-16T19:46:08.444Z,10.90
2023-04-16T19:48:35.267Z,10.90
2023-04-16T19:51:05.623Z,10.90
2023-04-16T19:53:34.118Z,10.80
2023-04-16T19:56:01.064Z,10.80
2023-04-16T19:58:27.847Z,10.80
2023-04-16T20:00:55.143Z,10.80
2023-04-16T20:03:22.129Z,10.80
2023-04-16T20:05:50.275Z,10.80
2023-04-16T20:08:16.999Z,10.70
2023-04-16T20:10:43.923Z,10.70
2023-04-16T20:13:12.122Z,10.70
2023-04-16T20:15:38.951Z,10.70
2023-04-16T20:18:12.824Z,10.70
2023-04-16T20:20:42.786Z,10.60
2023-04-16T20:23:19.488Z,10.60
2023-04-16T20:25:57.350Z,10.60
2023-04-16T20:28:30.328Z,10.60
2023-04-16T20:30:57.629Z,10.60
2023-04-16T20:33:27.674Z,10.60
2023-04-16T20:36:25.504Z,10.60
2023-04-16T20:38:55.293Z,10.60
2023-04-16T20:44:56.488Z,10.50
2023-04-16T20:47:35.841Z,10.50
2023-04-16T20:50:11.333Z,10.50
2023-04-16T20:52:38.102Z,10.50
2023-04-16T20:55:05.121Z,10.50
2023-04-16T20:57:32.030Z,10.50
2023-04-16T20:59:58.816Z,10.50
2023-04-16T21:02:34.845Z,10.50
2023-04-16T21:05:01.845Z,10.50
2023-04-16T21:07:28.682Z,10.40
2023-04-16T21:09:56.207Z,10.40
2023-04-16T21:12:26.221Z,10.40
2023-04-16T21:14:52.957Z,10.40
2023-04-16T21:17:19.775Z,10.30
2023-04-16T21:19:46.508Z,10.30
2023-04-16T21:22:13.351Z,10.30
2023-04-16T21:24:40.566Z,10.30
2023-04-16T21:27:07.368Z,10.30
2023-04-16T21:29:34.258Z,10.30
2023-04-16T21:32:01.182Z,10.30
2023-04-16T21:34:27.959Z,10.30
2023-04-16T21:36:54.758Z,10.20
2023-04-16T21:39:21.736Z,10.20
2023-04-16T21:41:48.889Z,10.20
2023-04-16T21:44:15.752Z,10.20
2023-04-16T21:46:42.543Z,10.20
2023-04-16T21:49:09.508Z,10.10
2023-04-16T21:51:38.170Z,10.20
2023-04-16T21:54:05.457Z,10.10
2023-04-16T21:56:36.650Z,10.10
2023-04-16T21:59:03.365Z,10.10
2023-04-16T22:01:30.207Z,10.10
2023-04-16T22:03:57.128Z,10.10
2023-04-16T22:06:29.767Z,10.10
2023-04-16T22:08:58.814Z,10.00
2023-04-16T22:11:26.578Z,10.00
2023-04-16T22:13:57.622Z,10.00
2023-04-16T22:16:24.913Z,10.00
2023-04-16T22:18:51.673Z,10.00
2023-04-16T22:21:18.370Z,9.90
2023-04-16T22:23:45.321Z,9.90
2023-04-16T22:26:12.837Z,9.90
2023-04-16T22:28:39.588Z,9.90
2023-04-16T22:31:09.364Z,9.90
2023-04-16T22:33:36.323Z,9.80
2023-04-16T22:36:03.083Z,9.80
2023-04-16T22:38:29.898Z,9.80
2023-04-16T22:40:58.993Z,9.80
2023-04-16T22:43:25.941Z,9.80
2023-04-16T22:46:04.550Z,9.80
2023-04-16T22:48:31.832Z,9.80
2023-04-16T22:50:58.617Z,9.80
2023-04-16T22:53:25.602Z,9.80
2023-04-16T22:55:52.368Z,9.80
2023-04-16T22:58:19.491Z,9.70
2023-04-16T23:00:47.592Z,9.70
2023-04-16T23:03:14.700Z,9.80
2023-04-16T23:05:41.538Z,9.80
2023-04-16T23:08:08.356Z,9.70
2023-04-16T23:10:35.295Z,9.70
2023-04-16T23:13:02.141Z,9.70
2023-04-16T23:15:28.962Z,9.70
2023-04-16T23:17:56.019Z,9.70
2023-04-16T23:20:22.807Z,9.70
2023-04-16T23:22:49.660Z,9.70
2023-04-16T23:25:18.040Z,9.60
2023-04-16T23:27:44.898Z,9.60
2023-04-16T23:30:11.926Z,9.60
2023-04-16T23:32:38.825Z,9.60
2023-04-16T23:35:06.063Z,9.60
2023-04-16T23:37:32.813Z,9.60
2023-04-16T23:39:59.559Z,9.60
2023-04-16T23:42:26.341Z,9.60
2023-04-16T23:44:53.058Z,9.60
2023-04-16T23:47:19.792Z,9.60
2023-04-16T23:49:46.696Z,9.60
2023-04-16T23:52:13.827Z,9.60
2023-04-16T23:54:40.930Z,9.60
2023-04-16T23:57:07.679Z,9.60
2023-04-16T23:59:34.396Z,9.60
